createdAt,value
2023-05-05T00:03:53.119Z,16.80
2023-05-05T00:12:01.089Z,16.70
2023-05-05T00:20:07.253Z,16.80
2023-05-05T00:28:15.504Z,16.70
2023-05-05T00:36:20.915Z,16.60
2023-05-05T00:44:45.132Z,16.60
2023-05-05T00:52:50.658Z,16.70
2023-05-05T01:00:58.686Z,16.70
2023-05-05T01:09:13.215Z,16.40
2023-05-05T01:17:24.990Z,16.70
2023-05-05T01:25:53.517Z,16.60
2023-05-05T01:34:07.172Z,16.60
2023-05-05T01:42:16.458Z,16.50
2023-05-05T01:50:25.779Z,16.60
2023-05-05T01:58:33.066Z,16.40
2023-05-05T02:06:43.057Z,16.20
2023-05-05T02:14:49.964Z,16.20
2023-05-05T02:22:58.917Z,15.90
2023-05-05T02:31:05.740Z,16.00
2023-05-05T02:39:17.410Z,16.00
2023-05-05T02:47:24.264Z,16.00
2023-05-05T02:55:40.089Z,16.20
2023-05-05T03:03:50.237Z,16.20
2023-05-05T03:12:05.016Z,16.20
2023-05-05T03:20:18.360Z,16.30
2023-05-05T03:28:29.503Z,16.20
2023-05-05T03:36:38.319Z,16.40
2023-05-05T03:44:48.743Z,16.50
2023-05-05T03:52:54.571Z,16.60
2023-05-05T04:01:03.011Z,16.60
2023-05-05T04:09:09.063Z,16.80
2023-05-05T04:17:18.862Z,16.50
2023-05-05T04:25:24.416Z,16.80
2023-05-05T04:33:32.730Z,17.00
2023-05-05T04:41:38.352Z,16.80
2023-05-05T04:49:46.669Z,16.50
2023-05-05T04:57:52.171Z,16.70
2023-05-05T05:06:00.533Z,17.20
2023-05-05T05:14:06.115Z,17.40
2023-05-05T05:22:14.741Z,17.90
2023-05-05T05:30:22.021Z,18.10
2023-05-05T05:38:30.368Z,18.20
2023-05-05T05:46:39.005Z,17.90
2023-05-05T05:54:47.486Z,17.50
2023-05-05T06:02:53.408Z,18.00
2023-05-05T06:11:05.468Z,18.60
2023-05-05T06:19:11.404Z,18.80
2023-05-05T06:27:19.802Z,18.90
2023-05-05T06:35:28.054Z,20.00
2023-05-05T06:43:36.199Z,20.50
2023-05-05T06:51:46.204Z,21.40
2023-05-05T06:59:54.214Z,22.30
2023-05-05T07:08:00.225Z,22.30
2023-05-05T07:16:08.910Z,22.50
2023-05-05T07:24:18.095Z,22.80
2023-05-05T07:32:26.263Z,22.80
2023-05-05T07:40:31.705Z,22.20
2023-05-05T07:48:41.835Z,23.40
2023-05-05T07:56:48.881Z,24.10
2023-05-05T08:04:56.936Z,24.00
2023-05-05T08:13:02.521Z,23.70
2023-05-05T08:21:11.437Z,23.30
2023-05-05T08:29:22.364Z,23.00
2023-05-05T08:37:30.779Z,22.80
2023-05-05T08:45:36.434Z,23.30
2023-05-05T08:53:54.491Z,23.40
2023-05-05T09:02:00.694Z,23.50
2023-05-05T09:10:12.595Z,23.50
2023-05-05T09:18:18.207Z,23.50
2023-05-05T09:26:26.669Z,23.70
2023-05-05T09:34:33.187Z,24.00
2023-05-05T09:42:45.013Z,23.50
2023-05-05T09:50:50.744Z,23.90
2023-05-05T09:59:12.079Z,24.70
2023-05-05T10:07:27.556Z,25.40
2023-05-05T10:15:35.566Z,25.40
2023-05-05T10:23:44.655Z,26.10
2023-05-05T10:31:57.213Z,26.40
2023-05-05T10:40:04.370Z,27.30
2023-05-05T10:48:17.594Z,27.90
2023-05-05T10:56:28.883Z,28.30
2023-05-05T11:04:36.996Z,27.20
2023-05-05T11:13:15.490Z,27.10
2023-05-05T11:21:24.614Z,27.40
2023-05-05T11:29:30.308Z,36.90
2023-05-05T11:37:40.695Z,40.20
2023-05-05T11:45:47.719Z,36.60
2023-05-05T11:53:57.329Z,36.90
2023-05-05T12:02:04.055Z,46.90
2023-05-05T12:10:13.392Z,51.60
2023-05-05T12:18:22.084Z,50.20
2023-05-05T12:26:42.120Z,43.60
2023-05-05T12:34:48.526Z,49.00
2023-05-05T12:42:56.614Z,53.60
2023-05-05T12:51:18.139Z,54.20
2023-05-05T12:59:35.320Z,56.90
2023-05-05T13:07:53.700Z,45.00
2023-05-05T13:16:01.856Z,35.60
2023-05-05T13:24:23.654Z,31.50
2023-05-05T13:32:36.871Z,29.70
2023-05-05T13:40:42.290Z,24.90
2023-05-05T13:48:52.502Z,26.40
2023-05-05T13:57:01.480Z,25.90
2023-05-05T14:05:11.102Z,25.80
2023-05-05T14:13:16.724Z,25.80
2023-05-05T14:21:24.964Z,25.60
2023-05-05T14:29:30.469Z,25.40
2023-05-05T14:37:38.462Z,24.70
2023-05-05T14:45:44.486Z,24.10
2023-05-05T14:53:52.625Z,24.20
2023-05-05T15:01:58.974Z,23.90
2023-05-05T15:10:08.456Z,23.80
2023-05-05T15:18:14.007Z,23.30
2023-05-05T15:26:24.130Z,23.90
2023-05-05T15:34:29.605Z,23.70
2023-05-05T15:42:40.517Z,23.60
2023-05-05T15:50:45.956Z,23.70
2023-05-05T15:58:54.059Z,23.10
2023-05-05T16:06:59.493Z,22.90
2023-05-05T16:15:08.679Z,23.10
2023-05-05T16:23:24.508Z,23.00
2023-05-05T16:31:34.154Z,22.90
2023-05-05T16:39:41.529Z,22.80
2023-05-05T16:47:49.959Z,23.10
2023-05-05T16:55:56.533Z,22.70
2023-05-05T17:04:04.622Z,22.70
2023-05-05T17:12:10.963Z,23.30
2023-05-05T17:20:19.281Z,22.80
2023-05-05T17:28:24.671Z,23.00
2023-05-05T17:36:35.800Z,22.70
2023-05-05T17:44:41.145Z,22.70
2023-05-05T17:52:50.807Z,22.50
2023-05-05T18:00:56.316Z,22.40
2023-05-05T18:09:04.894Z,22.50
2023-05-05T18:17:10.289Z,22.50
2023-05-05T18:25:19.407Z,22.00
2023-05-05T18:33:24.851Z,22.00
2023-05-05T18:41:33.092Z,21.90
2023-05-05T18:49:38.625Z,21.80
2023-05-05T18:57:46.743Z,21.70
2023-05-05T19:05:52.457Z,21.50
2023-05-05T19:14:01.497Z,21.20
2023-05-05T19:22:07.115Z,20.40
2023-05-05T19:30:16.533Z,20.00
2023-05-05T19:38:22.124Z,20.30
2023-05-05T19:46:30.209Z,20.50
2023-05-05T19:54:36.412Z,20.40
2023-05-05T20:02:47.846Z,20.20
2023-05-05T20:10:53.268Z,20.10
2023-05-05T20:19:01.303Z,20.20
2023-05-05T20:27:06.939Z,19.80
2023-05-05T20:35:15.370Z,19.40
2023-05-05T20:43:21.424Z,19.40
2023-05-05T20:51:32.246Z,19.40
2023-05-05T20:59:37.724Z,19.40
2023-05-05T21:07:47.130Z,19.40
2023-05-05T21:15:53.323Z,18.90
2023-05-05T21:24:01.446Z,18.90
2023-05-05T21:32:12.270Z,18.70
2023-05-05T21:40:20.769Z,18.80
2023-05-05T21:48:28.614Z,18.80
2023-05-05T21:56:37.023Z,18.90
2023-05-05T22:04:42.681Z,18.60
2023-05-05T22:12:51.196Z,18.30
2023-05-05T22:20:57.145Z,18.30
2023-05-05T22:29:05.507Z,18.20
2023-05-05T22:37:11.912Z,17.90
2023-05-05T22:45:20.270Z,17.90
2023-05-05T22:53:27.571Z,18.00
2023-05-05T23:01:36.389Z,17.90
2023-05-05T23:09:42.332Z,17.70
2023-05-05T23:17:50.600Z,17.70
2023-05-05T23:25:56.338Z,17.60
2023-05-05T23:34:04.684Z,17.20
2023-05-05T23:42:10.166Z,17.20
2023-05-05T23:50:18.080Z,17.30
2023-05-05T23:58:23.758Z,17.20
